createdAt,value
2022-08-18T00:02:07.263Z,34.80
2022-08-18T00:04:42.655Z,28.88
2022-08-18T00:07:18.032Z,31.42
2022-08-18T00:09:47.796Z,30.25
2022-08-18T00:12:17.804Z,31.08
2022-08-18T00:14:48.202Z,29.73
2022-08-18T00:17:17.222Z,27.88
2022-08-18T00:19:48.164Z,27.95
2022-08-18T00:22:19.078Z,31.17
2022-08-18T00:24:49.357Z,27.75
2022-08-18T00:27:23.067Z,27.80
2022-08-18T00:29:54.435Z,28.48
2022-08-18T00:32:24.403Z,26.67
2022-08-18T00:34:52.926Z,27.63
2022-08-18T00:37:21.252Z,30.35
2022-08-18T00:39:52.199Z,29.92
2022-08-18T00:42:29.920Z,31.17
2022-08-18T00:45:03.004Z,29.48
2022-08-18T00:47:32.868Z,39.00
2022-08-18T00:50:15.186Z,28.65
2022-08-18T00:52:44.689Z,25.85
2022-08-18T00:55:13.044Z,29.92
2022-08-18T00:57:42.457Z,25.73
2022-08-18T01:00:13.389Z,31.85
2022-08-18T01:02:44.354Z,29.60
2022-08-18T01:05:15.835Z,31.67
2022-08-18T01:07:45.856Z,28.42
2022-08-18T01:10:16.482Z,30.17
2022-08-18T01:12:46.893Z,35.20
2022-08-18T01:15:28.777Z,28.45
2022-08-18T01:18:16.447Z,29.05
2022-08-18T01:21:15.968Z,30.05
2022-08-18T01:23:46.116Z,26.48
2022-08-18T01:26:14.227Z,26.27
2022-08-18T01:28:43.560Z,29.50
2022-08-18T01:31:12.103Z,32.42
2022-08-18T01:33:41.266Z,34.22
2022-08-18T01:36:16.598Z,28.98
2022-08-18T01:38:47.192Z,31.50
2022-08-18T01:41:26.383Z,32.38
2022-08-18T01:43:56.521Z,34.15
2022-08-18T01:46:24.859Z,31.42
2022-08-18T01:48:53.705Z,29.90
2022-08-18T01:51:39.849Z,30.85
2022-08-18T01:54:10.855Z,35.25
2022-08-18T01:56:39.225Z,31.05
2022-08-18T01:59:07.790Z,31.90
2022-08-18T02:01:48.325Z,30.27
2022-08-18T02:04:37.108Z,34.85
2022-08-18T02:07:08.005Z,32.20
2022-08-18T02:09:38.420Z,33.53
2022-08-18T02:12:07.643Z,31.25
2022-08-18T02:14:36.044Z,34.58
2022-08-18T02:17:05.643Z,35.63
2022-08-18T02:19:34.762Z,34.60
2022-08-18T02:22:03.595Z,33.22
2022-08-18T02:24:31.955Z,33.30
2022-08-18T02:27:01.739Z,31.95
2022-08-18T02:29:30.079Z,29.45
2022-08-18T02:31:58.481Z,29.83
2022-08-18T02:34:26.787Z,27.80
2022-08-18T02:36:55.226Z,33.53
2022-08-18T02:39:23.545Z,35.28
2022-08-18T02:41:51.874Z,34.60
2022-08-18T02:44:21.796Z,34.13
2022-08-18T02:46:53.769Z,34.20
2022-08-18T02:49:22.126Z,36.45
2022-08-18T02:51:51.144Z,31.63
2022-08-18T02:54:20.451Z,37.90
2022-08-18T02:56:50.204Z,40.50
2022-08-18T02:59:19.917Z,35.45
2022-08-18T03:01:50.929Z,31.75
2022-08-18T03:04:23.991Z,36.45
2022-08-18T03:06:56.084Z,35.28
2022-08-18T03:09:24.473Z,35.63
2022-08-18T03:11:53.564Z,39.58
2022-08-18T03:14:22.426Z,34.67
2022-08-18T03:16:54.825Z,36.75
2022-08-18T03:19:24.085Z,35.78
2022-08-18T03:21:52.896Z,32.60
2022-08-18T03:24:22.317Z,32.22
2022-08-18T03:26:51.368Z,32.22
2022-08-18T03:29:19.712Z,32.15
2022-08-18T03:31:48.935Z,30.23
2022-08-18T03:34:20.496Z,33.70
2022-08-18T03:36:49.256Z,35.03
2022-08-18T03:39:18.010Z,35.92
2022-08-18T03:42:00.199Z,28.95
2022-08-18T03:44:30.627Z,29.38
2022-08-18T03:46:59.128Z,31.98
2022-08-18T03:49:28.828Z,29.52
2022-08-18T03:52:00.149Z,29.35
2022-08-18T03:54:28.695Z,29.80
2022-08-18T03:59:43.634Z,33.63
2022-08-18T04:02:12.512Z,28.25
2022-08-18T04:04:43.206Z,33.75
2022-08-18T04:07:14.340Z,35.47
2022-08-18T04:09:43.116Z,38.92
2022-08-18T04:12:16.295Z,37.85
2022-08-18T04:14:48.009Z,35.42
2022-08-18T04:17:16.872Z,34.78
2022-08-18T04:19:47.014Z,34.70
2022-08-18T04:22:18.363Z,35.28
2022-08-18T04:24:47.374Z,31.98
2022-08-18T04:27:18.521Z,33.10
2022-08-18T04:29:46.926Z,29.40
2022-08-18T04:32:15.276Z,33.92
2022-08-18T04:34:43.612Z,33.00
2022-08-18T04:37:15.465Z,34.13
2022-08-18T04:39:44.044Z,37.78
2022-08-18T04:42:12.468Z,34.00
2022-08-18T04:44:41.050Z,30.65
2022-08-18T04:47:10.138Z,34.13
2022-08-18T04:49:39.081Z,34.22
2022-08-18T04:52:38.015Z,34.80
2022-08-18T04:55:11.462Z,35.83
2022-08-18T04:57:39.881Z,36.28
2022-08-18T05:00:13.693Z,37.05
2022-08-18T05:02:42.242Z,34.88
2022-08-18T05:05:11.248Z,40.13
2022-08-18T05:07:44.881Z,32.45
2022-08-18T05:10:17.544Z,41.10
2022-08-18T05:12:48.179Z,35.03
2022-08-18T05:15:17.705Z,40.40
2022-08-18T05:17:46.950Z,36.45
2022-08-18T05:20:19.215Z,42.40
2022-08-18T05:22:47.972Z,34.83
2022-08-18T05:28:03.451Z,39.83
2022-08-18T05:30:31.770Z,50.35
2022-08-18T05:33:01.363Z,37.17
2022-08-18T05:35:32.662Z,39.58
2022-08-18T05:38:20.128Z,41.20
2022-08-18T05:40:58.161Z,44.75
2022-08-18T05:43:26.548Z,47.03
2022-08-18T05:45:56.972Z,35.15
2022-08-18T05:48:25.329Z,40.22
2022-08-18T05:50:53.674Z,44.30
2022-08-18T05:53:42.209Z,44.97
2022-08-18T05:56:41.966Z,43.05
2022-08-18T05:59:10.481Z,36.42
2022-08-18T06:01:42.606Z,41.00
2022-08-18T06:04:14.986Z,41.65
2022-08-18T06:06:47.492Z,35.08
2022-08-18T06:09:27.860Z,32.20
2022-08-18T06:12:05.955Z,31.63
2022-08-18T06:14:34.288Z,42.45
2022-08-18T06:17:07.576Z,31.38
2022-08-18T06:19:42.837Z,35.28
2022-08-18T06:22:18.344Z,28.17
2022-08-18T06:24:50.190Z,39.65
2022-08-18T06:27:23.632Z,32.55
2022-08-18T06:29:56.817Z,32.33
2022-08-18T06:32:29.712Z,31.33
2022-08-18T06:35:09.132Z,30.05
2022-08-18T06:38:00.883Z,30.95
2022-08-18T06:40:29.786Z,35.88
2022-08-18T06:43:02.224Z,28.90
2022-08-18T06:45:36.429Z,25.95
2022-08-18T06:48:15.231Z,29.30
2022-08-18T06:50:48.583Z,29.75
2022-08-18T06:53:26.868Z,26.38
2022-08-18T06:55:56.984Z,26.50
2022-08-18T06:58:30.455Z,26.17
2022-08-18T07:01:01.545Z,25.50
2022-08-18T07:03:43.297Z,26.13
2022-08-18T07:06:12.744Z,24.48
2022-08-18T07:08:42.722Z,23.33
2022-08-18T07:11:15.692Z,27.88
2022-08-18T07:13:58.570Z,29.80
2022-08-18T07:19:29.991Z,19.67
2022-08-18T07:22:03.552Z,24.80
2022-08-18T07:24:33.661Z,26.48
2022-08-18T07:27:03.013Z,23.83
2022-08-18T07:29:34.405Z,20.95
2022-08-18T07:32:05.137Z,20.60
2022-08-18T07:34:36.537Z,19.08
2022-08-18T07:37:07.339Z,21.02
2022-08-18T07:39:38.687Z,22.38
2022-08-18T07:42:37.137Z,19.02
2022-08-18T07:45:11.407Z,19.45
2022-08-18T07:47:44.517Z,22.38
2022-08-18T07:50:27.265Z,18.27
2022-08-18T07:53:05.133Z,17.40
2022-08-18T07:55:37.031Z,17.95
2022-08-18T07:58:14.464Z,19.27
2022-08-18T08:00:59.709Z,21.60
2022-08-18T08:03:33.225Z,20.92
2022-08-18T08:06:04.651Z,17.20
2022-08-18T08:08:39.804Z,16.80
2022-08-18T08:11:15.634Z,16.10
2022-08-18T08:13:55.603Z,13.68
2022-08-18T08:16:29.990Z,21.25
2022-08-18T08:19:02.234Z,23.05
2022-08-18T08:21:42.212Z,16.63
2022-08-18T08:24:12.816Z,14.70
2022-08-18T08:26:47.999Z,14.32
2022-08-18T08:29:21.688Z,15.85
2022-08-18T08:31:54.075Z,17.88
2022-08-18T08:34:24.173Z,17.33
2022-08-18T08:36:55.787Z,17.75
2022-08-18T08:39:26.925Z,16.40
2022-08-18T08:42:29.196Z,14.57
2022-08-18T08:44:58.862Z,16.00
2022-08-18T08:47:32.671Z,15.63
2022-08-18T08:50:03.468Z,13.23
2022-08-18T08:52:33.804Z,13.10
2022-08-18T08:55:05.185Z,14.43
2022-08-18T08:57:35.581Z,13.93
2022-08-18T09:03:08.406Z,17.70
2022-08-18T09:05:40.175Z,12.05
2022-08-18T09:08:24.456Z,17.45
2022-08-18T09:11:19.015Z,20.90
2022-08-18T09:13:58.886Z,29.98
2022-08-18T09:16:35.739Z,14.52
2022-08-18T09:19:14.008Z,12.50
2022-08-18T09:21:45.498Z,15.65
2022-08-18T09:24:20.228Z,14.50
2022-08-18T09:26:52.676Z,19.05
2022-08-18T09:29:24.153Z,11.65
2022-08-18T09:32:11.537Z,17.98
2022-08-18T09:34:46.458Z,14.70
2022-08-18T09:37:18.296Z,12.55
2022-08-18T09:40:12.782Z,13.63
2022-08-18T09:42:49.928Z,15.77
2022-08-18T09:45:37.365Z,17.40
2022-08-18T09:48:25.530Z,13.63
2022-08-18T09:51:19.343Z,12.10
2022-08-18T09:53:56.687Z,17.38
2022-08-18T09:56:54.506Z,12.98
2022-08-18T09:59:42.960Z,19.70
2022-08-18T10:02:20.130Z,14.50
2022-08-18T10:05:22.492Z,11.85
2022-08-18T10:07:54.256Z,10.75
2022-08-18T10:11:01.478Z,14.35
2022-08-18T10:13:17.814Z,27.60
2022-08-18T10:16:10.461Z,24.35
2022-08-18T10:18:54.335Z,42.33
2022-08-18T10:27:09.382Z,30.40
2022-08-18T10:29:48.386Z,24.80
2022-08-18T10:32:24.788Z,14.50
2022-08-18T10:34:55.534Z,16.13
2022-08-18T10:37:26.348Z,18.58
2022-08-18T10:39:59.471Z,14.85
2022-08-18T10:42:31.704Z,17.23
2022-08-18T10:45:06.720Z,18.50
2022-08-18T10:47:35.410Z,17.27
2022-08-18T10:50:08.692Z,15.82
2022-08-18T10:53:24.045Z,21.80
2022-08-18T10:55:53.008Z,18.20
2022-08-18T10:58:30.264Z,11.98
2022-08-18T11:01:04.877Z,17.15
2022-08-18T11:03:51.061Z,23.80
2022-08-18T11:06:23.533Z,15.93
2022-08-18T11:08:55.235Z,21.27
2022-08-18T11:11:33.122Z,14.63
2022-08-18T11:14:10.193Z,14.65
2022-08-18T11:16:44.555Z,16.60
2022-08-18T11:19:16.867Z,14.40
2022-08-18T11:21:51.684Z,14.82
2022-08-18T11:24:22.174Z,13.07
2022-08-18T11:26:54.929Z,17.02
2022-08-18T11:29:26.928Z,18.23
2022-08-18T11:31:59.611Z,14.70
2022-08-18T11:34:32.656Z,16.35
2022-08-18T11:37:02.854Z,14.45
2022-08-18T11:39:43.984Z,13.48
2022-08-18T11:42:21.795Z,11.75
2022-08-18T11:44:55.685Z,13.65
2022-08-18T11:47:27.755Z,13.80
2022-08-18T11:49:59.622Z,14.25
2022-08-18T11:52:34.549Z,15.57
2022-08-18T11:57:59.526Z,12.80
2022-08-18T12:00:42.840Z,19.30
2022-08-18T12:03:16.488Z,12.98
2022-08-18T12:05:54.136Z,13.27
2022-08-18T12:08:56.401Z,20.35
2022-08-18T12:11:26.714Z,12.32
2022-08-18T12:14:31.799Z,15.55
2022-08-18T12:16:54.110Z,12.77
2022-08-18T12:19:24.429Z,12.88
2022-08-18T12:21:55.391Z,18.17
2022-08-18T12:24:26.435Z,14.52
2022-08-18T12:27:12.271Z,15.77
2022-08-18T12:29:51.740Z,14.02
2022-08-18T12:32:49.894Z,13.85
2022-08-18T12:35:11.346Z,18.63
2022-08-18T12:37:58.966Z,16.02
2022-08-18T12:40:29.623Z,13.75
2022-08-18T12:42:58.237Z,13.75
2022-08-18T12:45:31.157Z,15.82
2022-08-18T12:48:04.210Z,12.13
2022-08-18T12:50:37.613Z,13.95
2022-08-18T12:53:11.115Z,19.48
2022-08-18T12:55:43.715Z,15.43
2022-08-18T12:58:13.883Z,16.10
2022-08-18T13:00:44.806Z,13.07
2022-08-18T13:03:13.152Z,16.15
2022-08-18T13:05:41.490Z,16.67
2022-08-18T13:08:13.707Z,12.25
2022-08-18T13:11:00.385Z,15.65
2022-08-18T13:13:43.236Z,12.52
2022-08-18T13:16:16.336Z,13.52
2022-08-18T13:18:58.747Z,15.20
2022-08-18T13:21:27.891Z,13.50
2022-08-18T13:24:07.762Z,12.70
2022-08-18T13:26:38.722Z,16.70
2022-08-18T13:29:10.495Z,12.98
2022-08-18T13:31:42.395Z,15.30
2022-08-18T13:34:24.397Z,15.55
2022-08-18T13:36:52.828Z,14.38
2022-08-18T13:39:22.672Z,15.02
2022-08-18T13:41:53.344Z,14.45
2022-08-18T13:44:22.862Z,10.68
2022-08-18T13:46:56.144Z,12.95
2022-08-18T13:49:30.400Z,11.48
2022-08-18T13:52:00.829Z,13.20
2022-08-18T13:54:35.075Z,12.10
2022-08-18T13:57:04.270Z,14.88
2022-08-18T13:59:34.062Z,13.35
2022-08-18T14:02:08.571Z,12.05
2022-08-18T14:04:38.583Z,14.02
2022-08-18T14:07:10.405Z,12.52
2022-08-18T14:09:40.857Z,13.85
2022-08-18T14:12:15.293Z,11.45
2022-08-18T14:14:44.710Z,14.90
2022-08-18T14:17:14.458Z,12.40
2022-08-18T14:20:01.176Z,15.02
2022-08-18T14:22:48.234Z,14.15
2022-08-18T14:25:34.556Z,14.40
2022-08-18T14:28:03.876Z,14.57
2022-08-18T14:30:32.735Z,14.30
2022-08-18T14:33:02.770Z,11.50
2022-08-18T14:36:04.540Z,10.98
2022-08-18T14:38:20.483Z,13.93
2022-08-18T14:40:50.218Z,13.90
2022-08-18T14:43:21.438Z,12.63
2022-08-18T14:45:53.847Z,12.32
2022-08-18T14:48:27.985Z,11.52
2022-08-18T14:50:58.834Z,13.45
2022-08-18T14:53:29.070Z,13.30
2022-08-18T14:55:59.383Z,13.38
2022-08-18T14:58:29.030Z,12.48
2022-08-18T15:00:57.521Z,14.15
2022-08-18T15:03:28.332Z,13.82
2022-08-18T15:06:04.454Z,12.95
2022-08-18T15:08:35.226Z,13.32
2022-08-18T15:11:06.039Z,13.15
2022-08-18T15:13:40.628Z,15.57
2022-08-18T15:16:13.705Z,13.50
2022-08-18T15:18:42.198Z,12.18
2022-08-18T15:21:38.279Z,13.35
2022-08-18T15:24:25.293Z,13.23
2022-08-18T15:26:58.179Z,13.10
2022-08-18T15:29:32.093Z,14.10
2022-08-18T15:32:05.898Z,12.43
2022-08-18T15:34:47.391Z,15.32
2022-08-18T15:37:22.184Z,16.30
2022-08-18T15:40:00.401Z,11.45
2022-08-18T15:42:28.732Z,11.38
2022-08-18T15:44:57.158Z,13.25
2022-08-18T15:47:26.443Z,13.30
2022-08-18T15:49:55.354Z,12.25
2022-08-18T15:52:27.401Z,12.60
2022-08-18T15:55:02.284Z,12.35
2022-08-18T15:57:39.686Z,9.50
2022-08-18T16:00:12.172Z,11.60
2022-08-18T16:02:44.589Z,14.30
2022-08-18T16:05:16.988Z,12.27
2022-08-18T16:07:47.566Z,17.45
2022-08-18T16:10:16.761Z,14.27
2022-08-18T16:12:46.111Z,10.20
2022-08-18T16:15:15.461Z,15.57
2022-08-18T16:17:48.422Z,9.98
2022-08-18T16:20:18.746Z,12.93
2022-08-18T16:22:48.734Z,13.40
2022-08-18T16:25:17.270Z,11.02
2022-08-18T16:27:45.643Z,13.23
2022-08-18T16:30:15.805Z,12.60
2022-08-18T16:32:45.128Z,14.40
2022-08-18T16:35:13.464Z,13.77
2022-08-18T16:37:42.140Z,13.30
2022-08-18T16:40:12.526Z,12.07
2022-08-18T16:42:40.896Z,12.50
2022-08-18T16:45:09.488Z,13.85
2022-08-18T16:47:39.118Z,15.07
2022-08-18T16:50:08.463Z,16.90
2022-08-18T16:52:36.762Z,10.63
2022-08-18T16:55:05.702Z,12.55
2022-08-18T16:57:55.199Z,11.70
2022-08-18T17:00:41.645Z,13.10
2022-08-18T17:03:28.093Z,11.75
2022-08-18T17:06:03.231Z,12.13
2022-08-18T17:08:34.325Z,11.98
2022-08-18T17:11:02.794Z,12.23
2022-08-18T17:13:32.970Z,14.07
2022-08-18T17:16:01.362Z,13.98
2022-08-18T17:18:30.504Z,10.20
2022-08-18T17:20:59.084Z,13.32
2022-08-18T17:23:27.939Z,12.15
2022-08-18T17:25:57.039Z,10.13
2022-08-18T17:28:27.767Z,13.88
2022-08-18T17:30:57.429Z,18.73
2022-08-18T17:33:27.887Z,15.60
2022-08-18T17:35:58.859Z,11.07
2022-08-18T17:38:28.316Z,12.70
2022-08-18T17:40:58.085Z,14.07
2022-08-18T17:43:29.132Z,14.70
2022-08-18T17:46:00.038Z,15.45
2022-08-18T17:48:29.778Z,13.32
2022-08-18T17:51:18.355Z,19.73
2022-08-18T17:53:46.789Z,16.45
2022-08-18T17:56:19.309Z,15.65
2022-08-18T17:58:50.269Z,16.33
2022-08-18T18:01:20.088Z,16.17
2022-08-18T18:03:48.395Z,16.67
2022-08-18T18:06:20.277Z,17.00
2022-08-18T18:08:49.940Z,17.95
2022-08-18T18:11:18.668Z,20.60
2022-08-18T18:13:46.991Z,15.73
2022-08-18T18:16:25.339Z,12.93
2022-08-18T18:19:01.529Z,18.65
2022-08-18T18:22:01.021Z,16.23
2022-08-18T18:24:23.971Z,10.60
2022-08-18T18:26:53.092Z,14.93
2022-08-18T18:29:29.143Z,16.50
2022-08-18T18:32:04.264Z,17.17
2022-08-18T18:34:35.429Z,17.20
2022-08-18T18:37:04.339Z,15.45
2022-08-18T18:39:35.563Z,13.60
2022-08-18T18:42:17.675Z,17.40
2022-08-18T18:44:52.806Z,14.35
2022-08-18T18:47:33.341Z,12.93
2022-08-18T18:50:04.797Z,18.25
2022-08-18T18:52:39.185Z,20.10
2022-08-18T18:55:09.013Z,14.27
2022-08-18T18:57:39.997Z,13.90
2022-08-18T19:00:18.099Z,16.60
2022-08-18T19:02:58.211Z,21.00
2022-08-18T19:05:29.844Z,19.90
2022-08-18T19:08:20.400Z,16.17
2022-08-18T19:11:01.306Z,14.07
2022-08-18T19:13:35.078Z,12.75
2022-08-18T19:16:09.656Z,18.10
2022-08-18T19:18:44.601Z,20.88
2022-08-18T19:22:05.656Z,24.90
2022-08-18T19:24:22.009Z,17.48
2022-08-18T19:26:51.648Z,18.67
2022-08-18T19:29:24.504Z,14.80
2022-08-18T19:31:57.429Z,20.13
2022-08-18T19:34:30.971Z,16.95
2022-08-18T19:37:02.091Z,20.50
2022-08-18T19:39:34.418Z,18.48
2022-08-18T19:42:04.477Z,16.35
2022-08-18T19:44:36.160Z,19.63
2022-08-18T19:47:08.488Z,15.80
2022-08-18T19:49:45.571Z,22.00
2022-08-18T19:52:45.768Z,20.02
2022-08-18T19:55:13.560Z,20.70
2022-08-18T19:57:51.927Z,18.48
2022-08-18T20:00:24.110Z,16.77
2022-08-18T20:03:00.327Z,15.40
2022-08-18T20:05:38.443Z,15.25
2022-08-18T20:08:21.624Z,14.85
2022-08-18T20:10:55.204Z,14.02
2022-08-18T20:13:35.248Z,17.13
2022-08-18T20:16:15.743Z,15.00
2022-08-18T20:18:44.884Z,17.52
2022-08-18T20:21:36.835Z,15.30
2022-08-18T20:24:18.379Z,17.55
2022-08-18T20:26:49.144Z,14.75
2022-08-18T20:29:18.489Z,12.90
2022-08-18T20:31:54.325Z,13.32
2022-08-18T20:34:23.975Z,18.17
2022-08-18T20:36:53.941Z,17.27
2022-08-18T20:39:33.202Z,14.63
2022-08-18T20:42:01.806Z,15.50
2022-08-18T20:44:48.797Z,17.50
2022-08-18T20:47:35.692Z,14.60
2022-08-18T20:50:12.651Z,15.25
2022-08-18T20:52:47.912Z,18.58
2022-08-18T20:55:21.590Z,21.23
2022-08-18T20:57:55.371Z,22.20
2022-08-18T21:00:27.008Z,14.45
2022-08-18T21:02:56.933Z,16.10
2022-08-18T21:05:28.221Z,13.38
2022-08-18T21:08:03.375Z,18.02
2022-08-18T21:10:32.831Z,16.98
2022-08-18T21:13:02.334Z,14.75
2022-08-18T21:15:32.390Z,19.00
2022-08-18T21:18:01.472Z,17.10
2022-08-18T21:20:30.394Z,14.95
2022-08-18T21:23:04.526Z,17.90
2022-08-18T21:25:33.731Z,16.80
2022-08-18T21:28:04.013Z,18.67
2022-08-18T21:30:32.942Z,14.75
2022-08-18T21:33:02.086Z,19.05
2022-08-18T21:35:32.923Z,14.40
2022-08-18T21:38:03.628Z,15.07
2022-08-18T21:40:38.632Z,15.10
2022-08-18T21:43:07.539Z,15.10
2022-08-18T21:45:45.929Z,13.27
2022-08-18T21:48:16.172Z,15.50
2022-08-18T21:50:50.658Z,14.48
2022-08-18T21:53:21.680Z,14.52
2022-08-18T21:55:52.383Z,19.70
2022-08-18T21:58:32.769Z,15.38
2022-08-18T22:01:12.907Z,13.98
2022-08-18T22:03:50.900Z,14.60
2022-08-18T22:06:24.110Z,15.40
2022-08-18T22:08:53.253Z,15.50
2022-08-18T22:12:00.717Z,18.83
2022-08-18T22:14:35.735Z,15.40
2022-08-18T22:17:23.087Z,19.02
2022-08-18T22:19:51.442Z,15.35
2022-08-18T22:22:38.555Z,16.58
2022-08-18T22:25:07.043Z,16.30
2022-08-18T22:27:36.822Z,16.23
2022-08-18T22:30:05.803Z,14.98
2022-08-18T22:32:35.479Z,15.77
2022-08-18T22:35:03.864Z,16.42
2022-08-18T22:37:33.352Z,16.20
2022-08-18T22:40:02.992Z,16.58
2022-08-18T22:42:33.449Z,19.27
2022-08-18T22:45:04.768Z,16.67
2022-08-18T22:47:34.136Z,16.75
2022-08-18T22:50:13.311Z,15.02
2022-08-18T22:52:42.692Z,15.70
2022-08-18T22:55:12.771Z,15.48
2022-08-18T22:57:43.084Z,14.15
2022-08-18T23:00:14.497Z,20.27
2022-08-18T23:02:43.590Z,15.77
2022-08-18T23:05:12.589Z,16.80
2022-08-18T23:07:40.924Z,19.35
2022-08-18T23:10:13.773Z,20.50
2022-08-18T23:12:42.735Z,14.73
2022-08-18T23:15:12.100Z,15.85
2022-08-18T23:17:42.019Z,16.45
2022-08-18T23:20:11.585Z,18.65
2022-08-18T23:22:40.256Z,19.10
2022-08-18T23:25:09.528Z,18.27
2022-08-18T23:27:37.888Z,15.60
2022-08-18T23:30:06.544Z,15.43
2022-08-18T23:32:34.869Z,13.50
2022-08-18T23:35:04.993Z,18.40
2022-08-18T23:37:33.286Z,13.57
2022-08-18T23:40:01.738Z,12.95
2022-08-18T23:42:31.531Z,13.35
2022-08-18T23:45:03.154Z,16.63
2022-08-18T23:47:31.496Z,13.40
2022-08-18T23:49:59.904Z,15.32
2022-08-18T23:52:29.621Z,14.18
2022-08-18T23:54:57.947Z,17.60
2022-08-18T23:57:26.258Z,15.60
2022-08-18T23:59:54.604Z,13.73
